Time;durP1;ratioP1;P1;durP2;ratioP2;P2;SDS_P1;SDS_P2;PMS_P1;PMS_P2;Temp;Humidity;BMP_temperature;BMP_pressure;BME280_temperature;BME280_humidity;BME280_pressure;Samples;Min_cycle;Max_cycle;Signal;HPM_P1;HPM_P2
2024/04/17 00:02:49;;;;;;;;;;;6.90;99.90;;;;;;9054011;25;19992;-75
2024/04/17 00:06:51;;;;;;;;;;;6.80;99.90;;;;;;9065380;26;19931;-75
2024/04/17 00:10:53;;;;;;;;;;;6.80;99.90;;;;;;9041754;26;20243;-75
2024/04/17 00:14:55;;;;;;;;;;;6.70;99.90;;;;;;9043663;26;19993;-75
2024/04/17 00:18:57;;;;;;;;;;;6.50;99.90;;;;;;9036250;26;19931;-75
2024/04/17 00:22:59;;;;;;;;;;;6.40;99.90;;;;;;9041502;26;19952;-76
2024/04/17 00:27:00;;;;;;;;;;;6.40;99.90;;;;;;9051552;26;19923;-77
2024/04/17 00:31:02;;;;;;;;;;;6.30;99.90;;;;;;9040752;26;19961;-75
2024/04/17 00:35:04;;;;;;;;;;;6.20;99.90;;;;;;9035792;26;20368;-75
2024/04/17 00:39:06;;;;;;;;;;;6.20;99.90;;;;;;9079159;26;19932;-75
2024/04/17 00:43:08;;;;;;;;;;;6.10;99.90;;;;;;9026301;26;19931;-75
2024/04/17 00:47:09;;;;;;;;;;;6.00;99.90;;;;;;9042623;26;20038;-75
2024/04/17 00:51:15;;;;;;;;;;;5.90;99.90;;;;;;9021819;26;19930;-75
2024/04/17 00:55:16;;;;;;;;;;;5.90;99.90;;;;;;9058578;26;19942;-75
2024/04/17 00:59:18;;;;;;;;;;;5.90;99.90;;;;;;9050077;26;20304;-75
2024/04/17 01:03:20;;;;;;;;;;;5.90;99.90;;;;;;9044123;26;20276;-75
2024/04/17 01:12:14;;;;;;;;;;;5.90;99.90;;;;;;9043112;26;20000;-76
2024/04/17 01:16:16;;;;;;;;;;;5.90;99.90;;;;;;9062894;26;19952;-75
2024/04/17 01:20:17;;;;;;;;;;;6.00;99.90;;;;;;9065370;26;19930;-75
2024/04/17 01:24:19;;;;;;;;;;;6.00;99.90;;;;;;9040852;26;19924;-75
2024/04/17 01:28:21;;;;;;;;;;;6.10;99.90;;;;;;9029778;26;20551;-75
2024/04/17 01:32:23;;;;;;;;;;;6.20;99.90;;;;;;9041624;26;19993;-75
2024/04/17 01:36:24;;;;;;;;;;;6.30;99.90;;;;;;9029280;26;19925;-75
2024/04/17 01:40:26;;;;;;;;;;;6.40;99.90;;;;;;9075473;26;20327;-75
2024/04/17 01:44:28;;;;;;;;;;;6.40;99.90;;;;;;9037533;26;19925;-75
2024/04/17 01:48:31;;;;;;;;;;;6.50;99.90;;;;;;9058901;26;20459;-75
2024/04/17 01:52:33;;;;;;;;;;;6.60;99.90;;;;;;9078640;26;19924;-75
2024/04/17 01:56:34;;;;;;;;;;;6.60;99.90;;;;;;9030797;26;19932;-75
2024/04/17 02:00:36;;;;;;;;;;;6.70;99.90;;;;;;9041037;26;20676;-75
2024/04/17 02:04:38;;;;;;;;;;;6.80;99.90;;;;;;9026957;26;20267;-75
2024/04/17 02:08:40;;;;;;;;;;;6.80;99.90;;;;;;9039033;26;19984;-75
2024/04/17 02:12:42;;;;;;;;;;;6.90;99.90;;;;;;9044612;26;19947;-75
2024/04/17 02:16:43;;;;;;;;;;;6.90;99.90;;;;;;9033239;26;19956;-75
2024/04/17 02:20:45;;;;;;;;;;;7.00;99.90;;;;;;9030853;26;19966;-75
2024/04/17 02:24:47;;;;;;;;;;;7.00;99.90;;;;;;9035526;26;20039;-75
2024/04/17 02:28:49;;;;;;;;;;;7.00;99.90;;;;;;9042365;26;20251;-75
2024/04/17 02:32:51;;;;;;;;;;;7.10;99.90;;;;;;9053959;26;19931;-75
2024/04/17 02:36:52;;;;;;;;;;;7.10;99.90;;;;;;9028815;26;19936;-75
2024/04/17 02:40:54;;;;;;;;;;;7.10;99.90;;;;;;9102934;26;20286;-75
2024/04/17 02:44:56;;;;;;;;;;;7.10;99.90;;;;;;9042027;26;19949;-75
2024/04/17 02:48:58;;;;;;;;;;;7.10;99.90;;;;;;9054163;26;19960;-75
2024/04/17 02:53:00;;;;;;;;;;;7.10;99.90;;;;;;9034963;26;19947;-74
2024/04/17 02:57:01;;;;;;;;;;;7.10;99.90;;;;;;9050490;26;19932;-75
2024/04/17 03:01:13;;;;;;;;;;;7.10;99.90;;;;;;9051665;26;20034;-75
2024/04/17 03:05:17;;;;;;;;;;;7.00;99.90;;;;;;9051836;26;20056;-75
2024/04/17 03:09:19;;;;;;;;;;;7.00;99.90;;;;;;9049766;26;19925;-75
2024/04/17 03:18:25;;;;;;;;;;;7.00;99.90;;;;;;9048407;26;20374;-75
2024/04/17 03:22:26;;;;;;;;;;;6.90;99.90;;;;;;9034519;26;19924;-75
2024/04/17 03:26:28;;;;;;;;;;;6.90;99.90;;;;;;9031911;26;19936;-75
2024/04/17 03:30:30;;;;;;;;;;;6.90;99.90;;;;;;9069070;26;19930;-74
2024/04/17 03:34:32;;;;;;;;;;;6.90;99.90;;;;;;9054718;26;20281;-75
2024/04/17 03:38:34;;;;;;;;;;;6.90;99.90;;;;;;9048489;26;19932;-75
2024/04/17 03:42:36;;;;;;;;;;;6.90;99.90;;;;;;9033320;26;20299;-75
2024/04/17 03:46:38;;;;;;;;;;;6.90;99.90;;;;;;9057924;26;19974;-75
2024/04/17 03:50:40;;;;;;;;;;;6.90;99.90;;;;;;9041301;26;19938;-75
2024/04/17 03:54:41;;;;;;;;;;;6.90;99.90;;;;;;9043840;26;19924;-74
2024/04/17 03:58:43;;;;;;;;;;;6.90;99.90;;;;;;9053700;26;19925;-75
2024/04/17 04:02:45;;;;;;;;;;;6.90;99.90;;;;;;9055229;26;19932;-75
2024/04/17 04:06:50;;;;;;;;;;;6.80;99.90;;;;;;9061733;26;19924;-75
2024/04/17 04:10:52;;;;;;;;;;;6.80;99.90;;;;;;9053279;26;20321;-75
2024/04/17 04:14:54;;;;;;;;;;;6.80;99.90;;;;;;9054438;26;19939;-75
2024/04/17 04:18:55;;;;;;;;;;;6.80;99.90;;;;;;9060087;26;19930;-75
2024/04/17 04:22:57;;;;;;;;;;;6.80;99.90;;;;;;9038739;26;19958;-75
2024/04/17 04:26:59;;;;;;;;;;;6.80;99.90;;;;;;9043352;26;20259;-76
2024/04/17 04:31:01;;;;;;;;;;;6.80;99.90;;;;;;9042592;26;19928;-75
2024/04/17 04:35:03;;;;;;;;;;;6.80;99.90;;;;;;9034413;26;19924;-75
2024/04/17 04:39:05;;;;;;;;;;;6.80;99.90;;;;;;9072407;26;20053;-75
2024/04/17 04:43:07;;;;;;;;;;;6.80;99.90;;;;;;9027655;26;19925;-75
2024/04/17 04:47:09;;;;;;;;;;;6.80;99.90;;;;;;9058599;26;20660;-75
2024/04/17 04:51:11;;;;;;;;;;;6.80;99.90;;;;;;9047728;26;19992;-75
2024/04/17 04:55:13;;;;;;;;;;;6.80;99.90;;;;;;9040105;26;19944;-75
2024/04/17 04:59:15;;;;;;;;;;;6.70;99.90;;;;;;9054433;26;20020;-75
2024/04/17 05:03:17;;;;;;;;;;;6.70;99.90;;;;;;9039368;26;19924;-75
2024/04/17 05:07:19;;;;;;;;;;;6.70;99.90;;;;;;9042153;26;20356;-75
2024/04/17 05:11:21;;;;;;;;;;;6.70;99.90;;;;;;9037234;26;19924;-75
2024/04/17 05:15:23;;;;;;;;;;;6.60;99.90;;;;;;9035529;26;19923;-75
2024/04/17 05:19:24;;;;;;;;;;;6.60;99.90;;;;;;9055035;26;21749;-75
2024/04/17 05:23:26;;;;;;;;;;;6.50;99.90;;;;;;9031245;26;19999;-75
2024/04/17 05:27:28;;;;;;;;;;;6.50;99.90;;;;;;9028293;26;19925;-75
2024/04/17 05:31:30;;;;;;;;;;;6.50;99.90;;;;;;9071444;25;20396;-74
2024/04/17 05:35:32;;;;;;;;;;;6.40;99.90;;;;;;9028882;26;20264;-75
2024/04/17 05:39:34;;;;;;;;;;;6.40;99.90;;;;;;9030113;26;19935;-75
2024/04/17 05:43:35;;;;;;;;;;;6.40;99.90;;;;;;9029949;26;19931;-75
2024/04/17 05:47:37;;;;;;;;;;;6.40;99.90;;;;;;9036172;26;19931;-74
2024/04/17 05:51:39;;;;;;;;;;;6.50;99.90;;;;;;9024473;26;19928;-75
2024/04/17 05:55:42;;;;;;;;;;;6.60;99.90;;;;;;9044716;26;19928;-75
2024/04/17 05:59:43;;;;;;;;;;;6.70;99.90;;;;;;9034828;26;20303;-75
2024/04/17 06:03:57;;;;;;;;;;;6.80;99.90;;;;;;9026342;26;19965;-75
2024/04/17 06:07:59;;;;;;;;;;;6.90;99.90;;;;;;9026842;26;19925;-76
2024/04/17 06:12:01;;;;;;;;;;;7.00;99.90;;;;;;9051092;26;19931;-75
2024/04/17 06:16:03;;;;;;;;;;;7.10;99.90;;;;;;9037501;26;20364;-75
2024/04/17 06:20:05;;;;;;;;;;;7.30;99.90;;;;;;9038692;26;22040;-74
2024/04/17 06:24:07;;;;;;;;;;;7.30;99.90;;;;;;9048573;26;20259;-74
2024/04/17 06:28:08;;;;;;;;;;;7.40;99.90;;;;;;9034325;26;19960;-74
2024/04/17 06:32:10;;;;;;;;;;;7.50;99.90;;;;;;9043027;26;19924;-74
2024/04/17 06:36:12;;;;;;;;;;;7.60;99.90;;;;;;9019918;26;19929;-74
2024/04/17 06:40:14;;;;;;;;;;;7.70;99.90;;;;;;9037467;26;19924;-74
2024/04/17 06:44:16;;;;;;;;;;;7.80;99.90;;;;;;9037754;26;19997;-74
2024/04/17 06:48:18;;;;;;;;;;;7.90;99.90;;;;;;9041709;26;19924;-75
2024/04/17 06:52:23;;;;;;;;;;;8.10;99.90;;;;;;9036290;26;19957;-74
2024/04/17 06:56:26;;;;;;;;;;;8.10;99.90;;;;;;9046016;26;19925;-75
2024/04/17 07:00:32;;;;;;;;;;;8.20;99.90;;;;;;9066292;26;19924;-75
2024/04/17 07:04:34;;;;;;;;;;;8.40;99.90;;;;;;9041241;26;19924;-74
2024/04/17 07:08:36;;;;;;;;;;;8.50;99.90;;;;;;9038646;26;20454;-75
2024/04/17 07:12:39;;;;;;;;;;;8.60;99.90;;;;;;9043763;26;19935;-75
2024/04/17 07:16:40;;;;;;;;;;;8.70;99.90;;;;;;9032272;26;20253;-75
2024/04/17 07:20:43;;;;;;;;;;;8.90;99.90;;;;;;9035134;26;19969;-74
2024/04/17 07:25:19;;;;;;;;;;;9.00;99.90;;;;;;9046395;26;19968;-75
2024/04/17 07:29:21;;;;;;;;;;;9.10;99.90;;;;;;9041084;26;19924;-74
2024/04/17 07:33:23;;;;;;;;;;;9.30;99.90;;;;;;9041885;26;19956;-75
2024/04/17 07:37:25;;;;;;;;;;;9.30;99.90;;;;;;9045765;26;19977;-75
2024/04/17 07:41:26;;;;;;;;;;;9.40;99.90;;;;;;9063966;26;19993;-75
2024/04/17 07:45:28;;;;;;;;;;;9.60;99.90;;;;;;9060307;26;20569;-75
2024/04/17 07:49:30;;;;;;;;;;;9.80;99.90;;;;;;9059755;26;19934;-74
2024/04/17 07:53:54;;;;;;;;;;;9.90;99.90;;;;;;9054758;26;19940;-74
2024/04/17 07:57:55;;;;;;;;;;;10.00;99.90;;;;;;9057771;26;19952;-75
2024/04/17 08:01:57;;;;;;;;;;;10.00;99.90;;;;;;9060295;26;19930;-75
2024/04/17 08:05:59;;;;;;;;;;;10.10;99.90;;;;;;9057890;26;19936;-75
2024/04/17 08:10:01;;;;;;;;;;;10.30;99.90;;;;;;9063001;26;19923;-74
2024/04/17 08:14:03;;;;;;;;;;;10.50;99.90;;;;;;9064901;26;19996;-74
2024/04/17 08:23:08;;;;;;;;;;;10.30;99.90;;;;;;9063411;26;19931;-75
2024/04/17 08:27:10;;;;;;;;;;;9.70;99.90;;;;;;9058949;26;19956;-75
2024/04/17 08:31:12;;;;;;;;;;;9.10;99.90;;;;;;9057564;26;20454;-75
2024/04/17 08:35:13;;;;;;;;;;;8.60;99.90;;;;;;9055708;26;19924;-74
2024/04/17 08:44:22;;;;;;;;;;;7.90;99.90;;;;;;9063807;26;20560;-75
2024/04/17 08:48:25;;;;;;;;;;;7.90;99.90;;;;;;9057665;26;20080;-75
2024/04/17 08:52:28;;;;;;;;;;;7.90;99.90;;;;;;9049895;26;19932;-75
2024/04/17 08:56:30;;;;;;;;;;;8.00;99.90;;;;;;9058393;26;19932;-75
2024/04/17 09:00:32;;;;;;;;;;;8.20;99.90;;;;;;9085900;25;19935;-75
2024/04/17 09:04:34;;;;;;;;;;;8.60;99.90;;;;;;9060549;26;19960;-74
2024/04/17 09:08:36;;;;;;;;;;;8.90;99.90;;;;;;9061321;26;19923;-74
2024/04/17 09:12:43;;;;;;;;;;;9.30;99.90;;;;;;9052455;26;19964;-75
2024/04/17 09:16:45;;;;;;;;;;;9.70;99.90;;;;;;9057827;26;20362;-75
2024/04/17 09:20:47;;;;;;;;;;;10.10;99.90;;;;;;9048400;26;19932;-74
2024/04/17 09:24:49;;;;;;;;;;;10.40;99.90;;;;;;9049232;26;20279;-75
2024/04/17 09:28:51;;;;;;;;;;;10.60;99.90;;;;;;9056459;26;19956;-75
2024/04/17 09:32:53;;;;;;;;;;;10.90;99.90;;;;;;9065693;26;19931;-74
2024/04/17 09:36:55;;;;;;;;;;;11.10;99.90;;;;;;9060244;26;19923;-75
2024/04/17 09:40:57;;;;;;;;;;;11.30;99.90;;;;;;9055516;26;19957;-75
2024/04/17 09:45:00;;;;;;;;;;;11.60;99.90;;;;;;9056991;26;19928;-75
2024/04/17 09:49:06;;;;;;;;;;;11.90;99.90;;;;;;9087652;26;19928;-75
2024/04/17 09:53:08;;;;;;;;;;;12.00;99.90;;;;;;9051664;26;19925;-75
2024/04/17 09:57:21;;;;;;;;;;;11.90;99.90;;;;;;9050738;26;20579;-75
2024/04/17 10:01:23;;;;;;;;;;;11.80;99.90;;;;;;9050596;26;19924;-75
2024/04/17 10:05:26;;;;;;;;;;;11.70;99.90;;;;;;9054730;26;19993;-75
2024/04/17 10:09:28;;;;;;;;;;;11.60;99.90;;;;;;9049237;26;21281;-75
2024/04/17 10:13:31;;;;;;;;;;;11.50;99.90;;;;;;9049200;26;20348;-74
2024/04/17 10:17:33;;;;;;;;;;;11.30;99.90;;;;;;9049356;26;20017;-75
2024/04/17 10:21:37;;;;;;;;;;;11.30;99.90;;;;;;9056930;26;19988;-74
2024/04/17 10:25:48;;;;;;;;;;;11.30;99.90;;;;;;9054709;26;19932;-75
2024/04/17 10:29:50;;;;;;;;;;;11.50;99.90;;;;;;9054138;26;19931;-74
2024/04/17 10:33:52;;;;;;;;;;;11.80;99.90;;;;;;9058640;26;19951;-75
2024/04/17 10:37:56;;;;;;;;;;;11.60;99.90;;;;;;9053786;26;19990;-75
2024/04/17 10:41:58;;;;;;;;;;;11.20;99.90;;;;;;9057981;26;19988;-74
2024/04/17 10:46:09;;;;;;;;;;;11.00;99.90;;;;;;9049739;26;20267;-74
2024/04/17 10:50:14;;;;;;;;;;;10.60;99.90;;;;;;9045772;26;20638;-74
2024/04/17 10:54:16;;;;;;;;;;;10.40;99.90;;;;;;9057276;26;19965;-74
2024/04/17 10:58:49;;;;;;;;;;;10.10;99.90;;;;;;9054300;26;19935;-74
2024/04/17 11:02:52;;;;;;;;;;;10.00;99.90;;;;;;9055777;26;20312;-75
2024/04/17 11:06:54;;;;;;;;;;;9.60;99.90;;;;;;9059823;26;19935;-75
2024/04/17 11:11:09;;;;;;;;;;;9.10;99.90;;;;;;9048245;26;20347;-75
2024/04/17 11:15:11;;;;;;;;;;;8.40;99.90;;;;;;9058198;26;19931;-75
2024/04/17 11:19:13;;;;;;;;;;;7.80;99.90;;;;;;9066108;26;19955;-76
2024/04/17 11:23:15;;;;;;;;;;;7.10;99.90;;;;;;9065832;26;19932;-75
2024/04/17 11:27:17;;;;;;;;;;;6.60;99.90;;;;;;9066099;26;19932;-75
2024/04/17 11:31:19;;;;;;;;;;;6.20;99.90;;;;;;9064500;26;19923;-75
2024/04/17 11:35:21;;;;;;;;;;;6.00;99.90;;;;;;9069370;26;19963;-75
2024/04/17 11:39:41;;;;;;;;;;;5.80;99.90;;;;;;9064351;26;19948;-74
2024/04/17 11:43:47;;;;;;;;;;;5.80;99.90;;;;;;9066087;26;20328;-75
2024/04/17 11:47:48;;;;;;;;;;;5.70;99.90;;;;;;9100317;26;19924;-75
2024/04/17 11:51:50;;;;;;;;;;;5.80;99.90;;;;;;9068327;26;20962;-75
2024/04/17 11:55:52;;;;;;;;;;;5.80;99.90;;;;;;9060467;26;19924;-75
2024/04/17 11:59:54;;;;;;;;;;;5.90;99.90;;;;;;9070938;26;20375;-75
2024/04/17 12:03:56;;;;;;;;;;;6.00;99.90;;;;;;9069557;26;19924;-75
2024/04/17 12:07:59;;;;;;;;;;;6.20;99.90;;;;;;9069652;26;19924;-75
2024/04/17 12:12:01;;;;;;;;;;;6.40;99.90;;;;;;9068985;26;20369;-75
2024/04/17 12:16:03;;;;;;;;;;;6.80;99.90;;;;;;9068171;26;19931;-75
2024/04/17 12:20:05;;;;;;;;;;;7.10;99.90;;;;;;9093930;26;19930;-75
2024/04/17 12:24:16;;;;;;;;;;;7.40;99.90;;;;;;9068341;26;20550;-75
2024/04/17 12:28:18;;;;;;;;;;;7.50;99.90;;;;;;9051846;26;20368;-75
2024/04/17 12:32:20;;;;;;;;;;;7.50;99.90;;;;;;9058121;26;19983;-74
2024/04/17 12:36:22;;;;;;;;;;;7.70;99.90;;;;;;9053941;26;20342;-74
2024/04/17 12:40:23;;;;;;;;;;;7.80;99.90;;;;;;9061945;26;19947;-75
2024/04/17 12:44:25;;;;;;;;;;;7.90;99.90;;;;;;9067525;26;20106;-74
2024/04/17 12:48:27;;;;;;;;;;;8.00;99.90;;;;;;9061438;26;19924;-75
2024/04/17 12:52:32;;;;;;;;;;;8.10;99.90;;;;;;9063467;26;19924;-76
2024/04/17 12:56:36;;;;;;;;;;;8.20;99.90;;;;;;9058398;26;20259;-74
2024/04/17 13:00:38;;;;;;;;;;;8.40;99.90;;;;;;9056652;26;19928;-74
2024/04/17 13:04:43;;;;;;;;;;;8.70;99.90;;;;;;9061901;26;19924;-74
2024/04/17 13:08:45;;;;;;;;;;;8.90;99.90;;;;;;9064306;26;19936;-75
2024/04/17 13:12:47;;;;;;;;;;;9.10;99.90;;;;;;9057857;26;19935;-74
2024/04/17 13:16:49;;;;;;;;;;;9.40;99.90;;;;;;9061609;26;19932;-75
2024/04/17 13:20:58;;;;;;;;;;;9.50;99.90;;;;;;9054962;26;19940;-74
2024/04/17 13:25:00;;;;;;;;;;;9.90;99.90;;;;;;9052576;26;20344;-74
2024/04/17 13:29:02;;;;;;;;;;;10.30;99.90;;;;;;9059960;26;19931;-75
2024/04/17 13:33:04;;;;;;;;;;;10.70;99.90;;;;;;9054896;26;19924;-74
2024/04/17 13:37:15;;;;;;;;;;;11.20;99.90;;;;;;9052682;26;19969;-74
2024/04/17 13:41:16;;;;;;;;;;;11.30;99.90;;;;;;9060011;26;19924;-75
2024/04/17 13:45:18;;;;;;;;;;;11.20;99.90;;;;;;9061780;26;20412;-75
2024/04/17 13:49:20;;;;;;;;;;;11.10;99.90;;;;;;9063797;26;19963;-74
2024/04/17 13:53:22;;;;;;;;;;;11.00;99.90;;;;;;9062170;26;19924;-75
2024/04/17 13:57:24;;;;;;;;;;;11.10;99.90;;;;;;9061082;26;19936;-75
2024/04/17 14:01:26;;;;;;;;;;;11.40;99.90;;;;;;9063673;26;19930;-75
2024/04/17 14:05:27;;;;;;;;;;;11.60;99.90;;;;;;9058699;26;19930;-74
2024/04/17 14:09:29;;;;;;;;;;;11.50;99.90;;;;;;9065059;26;19952;-75
2024/04/17 14:13:31;;;;;;;;;;;11.20;99.90;;;;;;9063671;26;25754;-75
2024/04/17 14:17:33;;;;;;;;;;;11.00;99.90;;;;;;9055531;26;19960;-74
2024/04/17 14:21:35;;;;;;;;;;;10.80;99.90;;;;;;9052352;26;19924;-75
2024/04/17 14:25:37;;;;;;;;;;;10.80;99.90;;;;;;9047451;26;20356;-74
2024/04/17 14:29:38;;;;;;;;;;;10.80;99.90;;;;;;9049770;26;19924;-75
2024/04/17 14:33:42;;;;;;;;;;;10.80;99.90;;;;;;9055014;26;19931;-74
2024/04/17 14:37:44;;;;;;;;;;;10.90;99.90;;;;;;9053271;26;19924;-75
2024/04/17 14:41:46;;;;;;;;;;;11.00;99.90;;;;;;9059856;26;20461;-74
2024/04/17 14:46:01;;;;;;;;;;;11.20;99.90;;;;;;9060359;26;19952;-74
2024/04/17 14:50:02;;;;;;;;;;;11.40;99.90;;;;;;9060457;26;19923;-74
2024/04/17 14:54:04;;;;;;;;;;;11.50;99.90;;;;;;9068209;26;19924;-75
2024/04/17 14:58:06;;;;;;;;;;;11.60;99.90;;;;;;9055595;26;19923;-75
2024/04/17 15:02:08;;;;;;;;;;;11.70;99.90;;;;;;9063626;26;19924;-75
2024/04/17 15:06:10;;;;;;;;;;;11.90;99.90;;;;;;9069720;26;20320;-74
2024/04/17 15:10:15;;;;;;;;;;;11.90;99.90;;;;;;9062208;26;19925;-74
2024/04/17 15:14:17;;;;;;;;;;;12.00;99.90;;;;;;9046951;26;19924;-74
2024/04/17 15:18:20;;;;;;;;;;;12.20;99.90;;;;;;9056695;26;19930;-75
2024/04/17 15:22:22;;;;;;;;;;;12.80;99.90;;;;;;9054589;26;20409;-75
2024/04/17 15:26:24;;;;;;;;;;;13.90;99.90;;;;;;9068414;26;20247;-75
2024/04/17 15:30:26;;;;;;;;;;;15.10;99.90;;;;;;9056026;26;19973;-74
2024/04/17 15:34:28;;;;;;;;;;;15.80;99.90;;;;;;9064395;26;19931;-75
2024/04/17 15:38:30;;;;;;;;;;;15.40;99.90;;;;;;9066224;26;19924;-74
2024/04/17 15:42:32;;;;;;;;;;;14.70;99.90;;;;;;9057680;26;19928;-75
2024/04/17 15:46:34;;;;;;;;;;;13.90;99.90;;;;;;9053564;26;20487;-75
2024/04/17 15:50:36;;;;;;;;;;;13.00;99.90;;;;;;9055027;26;19924;-74
2024/04/17 15:54:37;;;;;;;;;;;12.00;99.90;;;;;;9057242;26;19924;-74
2024/04/17 15:58:39;;;;;;;;;;;11.00;99.90;;;;;;9060216;26;19924;-75
2024/04/17 16:02:41;;;;;;;;;;;10.20;99.90;;;;;;9061262;26;19931;-75
2024/04/17 16:06:43;;;;;;;;;;;9.50;99.90;;;;;;9065430;26;20351;-75
2024/04/17 16:10:53;;;;;;;;;;;9.10;99.90;;;;;;9064850;26;19935;-74
2024/04/17 16:14:55;;;;;;;;;;;8.80;99.90;;;;;;9064003;26;19924;-74
2024/04/17 16:18:56;;;;;;;;;;;8.60;99.90;;;;;;9064567;26;19967;-77
2024/04/17 16:27:53;;;;;;;;;;;8.60;99.90;;;;;;9070533;26;19930;-74
2024/04/17 16:31:55;;;;;;;;;;;8.70;99.90;;;;;;9066975;26;19932;-74
2024/04/17 16:35:58;;;;;;;;;;;8.80;99.90;;;;;;9069842;26;20315;-74
2024/04/17 16:40:00;;;;;;;;;;;9.20;99.90;;;;;;9068640;26;19935;-74
2024/04/17 16:44:02;;;;;;;;;;;10.40;99.90;;;;;;9068424;26;20298;-75
2024/04/17 16:48:04;;;;;;;1.40;0.75;;;12.40;99.90;;;;;;9057611;26;19952;-75
2024/04/17 16:52:06;;;;;;;2.42;0.98;;;14.20;99.90;;;;;;9054035;26;20353;-75
2024/04/17 16:56:08;;;;;;;;;;;14.70;99.90;;;;;;9059067;26;20002;-75
2024/04/17 17:00:10;;;;;;;;;;;15.50;99.90;;;;;;9047709;26;19993;-75
2024/04/17 17:04:13;;;;;;;;;;;15.60;99.90;;;;;;9045278;26;19924;-75
2024/04/17 17:08:15;;;;;;;;;;;14.80;99.90;;;;;;9052678;26;20024;-75
2024/04/17 17:12:18;;;;;;;;;;;13.80;99.90;;;;;;9048438;26;20379;-74
2024/04/17 17:16:20;;;;;;;;;;;13.00;99.90;;;;;;9058899;26;19924;-74
2024/04/17 17:25:25;;;;;;;;;;;11.80;99.90;;;;;;9068784;26;19966;-74
2024/04/17 17:29:27;;;;;;;;;;;11.30;99.90;;;;;;9066760;26;19989;-74
2024/04/17 17:33:29;;;;;;;;;;;11.00;99.90;;;;;;9065168;26;19971;-75
2024/04/17 17:37:31;;;;;;;;;;;10.80;99.90;;;;;;9062759;26;19932;-74
2024/04/17 17:46:36;;;;;;;;;;;10.30;99.90;;;;;;9062926;26;19964;-75
2024/04/17 17:50:45;;;;;;;;;;;10.20;99.90;;;;;;9064720;26;19924;-74
2024/04/17 17:54:47;;;;;;;;;;;10.20;99.90;;;;;;9065095;26;19957;-74
2024/04/17 17:58:55;;;;;;;;;;;10.10;99.90;;;;;;9070462;26;19924;-74
2024/04/17 18:02:57;;;;;;;;;;;10.00;99.90;;;;;;9060005;26;19939;-74
2024/04/17 18:06:58;;;;;;;;;;;9.90;99.90;;;;;;9057992;26;19951;-74
2024/04/17 18:11:01;;;;;;;;;;;9.80;99.90;;;;;;9063540;26;19932;-74
2024/04/17 18:15:03;;;;;;;;;;;9.60;99.90;;;;;;9062443;26;19924;-74
2024/04/17 18:19:05;;;;;;;;;;;9.50;99.90;;;;;;9059676;26;20362;-74
2024/04/17 18:23:07;;;;;;;;;;;9.40;99.90;;;;;;9068430;26;19952;-74
2024/04/17 18:27:08;;;;;;;;;;;9.30;99.90;;;;;;9064800;26;20432;-75
2024/04/17 18:31:11;;;;;;;;;;;9.30;99.90;;;;;;9054261;26;20439;-75
2024/04/17 18:35:13;;;;;;;;;;;9.20;99.90;;;;;;9064505;26;20020;-74
2024/04/17 18:39:15;;;;;;;;;;;9.20;99.90;;;;;;9056745;26;20370;-75
2024/04/17 18:43:16;;;;;;;;;;;9.20;99.90;;;;;;9068407;26;19938;-74
2024/04/17 18:47:18;;;;;;;;;;;9.10;99.90;;;;;;9069610;26;19931;-74
2024/04/17 18:51:22;;;;;;;;;;;9.00;99.90;;;;;;9062013;26;20270;-74
2024/04/17 18:55:24;;;;;;;;;;;8.90;99.90;;;;;;9058633;26;19955;-74
2024/04/17 18:59:26;;;;;;;;;;;8.90;99.90;;;;;;9061068;26;19979;-74
2024/04/17 19:03:28;;;;;;;;;;;8.80;99.90;;;;;;9089635;25;19932;-74
2024/04/17 19:12:41;;;;;;;;;;;8.60;99.90;;;;;;9056890;26;19923;-74
2024/04/17 19:16:43;;;;;;;;;;;8.50;99.90;;;;;;9061363;26;19931;-75
2024/04/17 19:20:52;;;;;;;;;;;8.30;99.90;;;;;;9064473;26;19924;-74
2024/04/17 19:24:54;;;;;;;;;;;8.20;99.90;;;;;;9064591;26;19992;-74
2024/04/17 19:28:56;;;;;;;;;;;8.10;99.90;;;;;;9057676;26;19954;-74
2024/04/17 19:32:58;;;;;;;;;;;8.10;99.90;;;;;;9050871;26;20266;-75
2024/04/17 19:37:00;;;;;;;;;;;8.10;99.90;;;;;;9058110;26;20846;-74
2024/04/17 19:41:04;;;;;;;;;;;8.00;99.90;;;;;;9061033;26;19924;-75
2024/04/17 19:45:06;;;;;;;;;;;8.00;99.90;;;;;;9085743;26;19938;-74
2024/04/17 19:49:08;;;;;;;;;;;8.00;99.90;;;;;;9049982;26;20263;-75
2024/04/17 19:58:26;;;;;;;;;;;7.90;99.90;;;;;;9060531;26;19926;-75
2024/04/17 20:02:28;;;;;;;;;;;7.70;99.90;;;;;;9057699;26;19923;-74
2024/04/17 20:06:29;;;;;;;;;;;7.70;99.90;;;;;;9061324;26;21010;-75
2024/04/17 20:10:34;;;;;;;;;;;7.80;99.90;;;;;;9060461;26;19943;-75
2024/04/17 20:14:36;;;;;;;;;;;7.80;99.90;;;;;;9056902;26;19948;-74
2024/04/17 20:18:41;;;;;;;;;;;7.80;99.90;;;;;;9051756;26;20397;-75
2024/04/17 20:22:44;;;;;;;;;;;7.80;99.90;;;;;;9065886;26;19924;-74
2024/04/17 20:26:46;;;;;;;;;;;7.80;99.90;;;;;;9061433;26;19965;-74
2024/04/17 20:30:48;;;;;;;;;;;7.70;99.90;;;;;;9057212;26;20283;-74
2024/04/17 20:34:50;;;;;;;;;;;7.60;99.90;;;;;;9058951;26;21119;-74
2024/04/17 20:38:51;;;;;;;;;;;7.60;99.90;;;;;;9056173;26;19932;-74
2024/04/17 20:42:53;;;;;;;;;;;7.50;99.90;;;;;;9057602;26;19938;-74
2024/04/17 20:46:55;;;;;;;;;;;7.50;99.90;;;;;;9044572;26;20259;-75
2024/04/17 20:50:59;;;;;;;;;;;7.40;99.90;;;;;;9062602;26;19930;-74
2024/04/17 20:55:01;;;;;;;;;;;7.40;99.90;;;;;;9063079;26;19940;-74
2024/04/17 20:59:02;;;;;;;;;;;7.30;99.90;;;;;;9054129;26;19935;-74
2024/04/17 21:03:04;;;;;;;;;;;7.30;99.90;;;;;;9052442;26;19986;-74
2024/04/17 21:07:07;;;;;;;;;;;7.20;99.90;;;;;;9040641;26;19924;-75
2024/04/17 21:11:09;;;;;;;;;;;7.10;99.90;;;;;;9050456;26;19959;-75
2024/04/17 21:15:12;;;;;;;;;;;7.00;99.90;;;;;;9025518;26;20293;-75
2024/04/17 21:19:14;;;;;;;;;;;7.00;99.90;;;;;;9076468;26;19969;-74
2024/04/17 21:23:16;;;;;;;;;;;7.00;99.90;;;;;;9041455;26;19924;-75
2024/04/17 21:27:18;;;;;;;;;;;7.00;99.90;;;;;;9062864;26;19994;-75
2024/04/17 21:31:20;;;;;;;;;;;7.00;99.90;;;;;;9031123;26;20359;-75
2024/04/17 21:35:22;;;;;;;;;;;6.90;99.90;;;;;;9032102;26;19957;-74
2024/04/17 21:39:24;;;;;;;;;;;6.90;99.90;;;;;;9024329;26;19939;-75
2024/04/17 21:43:27;;;;;;;;;;;6.90;99.90;;;;;;9043146;26;20435;-74
2024/04/17 21:47:28;;;;;;;;;;;6.80;99.90;;;;;;9028397;26;19952;-76
2024/04/17 21:51:30;;;;;;;;;;;6.80;99.90;;;;;;9032533;26;19924;-75
2024/04/17 21:55:32;;;;;;;;;;;6.80;99.90;;;;;;9035466;26;20420;-74
2024/04/17 21:59:34;;;;;;;;;;;6.90;99.90;;;;;;9021120;26;19925;-75
2024/04/17 22:03:36;;;;;;;;;;;6.90;99.90;;;;;;9038605;26;20363;-75
2024/04/17 22:07:39;;;;;;;;;;;7.00;99.90;;;;;;9039912;26;20313;-74
2024/04/17 22:11:40;;;;;;;;;;;7.00;99.90;;;;;;9080298;26;19924;-74
2024/04/17 22:15:42;;;;;;;;;;;7.00;99.90;;;;;;9043777;26;19932;-75
2024/04/17 22:19:44;;;;;;;;;;;7.00;99.90;;;;;;9025775;26;19936;-74
2024/04/17 22:23:46;;;;;;;;;;;7.00;99.90;;;;;;9068801;26;19952;-74
2024/04/17 22:32:52;;;;;;;;;;;6.80;99.90;;;;;;9037808;26;19928;-74
2024/04/17 22:36:54;;;;;;;;;;;6.80;99.90;;;;;;9035344;26;19960;-74
2024/04/17 22:40:55;;;;;;;;;;;6.70;99.90;;;;;;9038570;26;20423;-74
2024/04/17 22:45:01;;;;;;;;;;;6.60;99.90;;;;;;9058189;26;19924;-74
2024/04/17 22:49:03;;;;;;;;;;;6.60;99.90;;;;;;9035496;26;19924;-74
2024/04/17 22:53:04;;;;;;;;;;;6.60;99.90;;;;;;9053511;26;19931;-75
2024/04/17 22:57:06;;;;;;;;;;;6.60;99.90;;;;;;9026049;26;19957;-75
2024/04/17 23:06:12;;;;;;;;;;;6.50;99.90;;;;;;9054852;26;19931;-75
2024/04/17 23:10:14;;;;;;;;;;;6.40;99.90;;;;;;9047873;26;20412;-76
2024/04/17 23:14:15;;;;;;;;;;;6.40;99.90;;;;;;9048262;26;20005;-75
2024/04/17 23:18:17;;;;;;;;;;;6.40;99.90;;;;;;9037245;26;19930;-74
2024/04/17 23:22:19;;;;;;;;;;;6.40;99.90;;;;;;9039375;26;19977;-74
2024/04/17 23:26:21;;;;;;;;;;;6.40;99.90;;;;;;9048217;26;19932;-75
2024/04/17 23:30:22;;;;;;;;;;;6.40;99.90;;;;;;9036973;26;20299;-75
2024/04/17 23:34:40;;;;;;;;;;;6.40;99.90;;;;;;9082414;26;19977;-75
2024/04/17 23:38:41;;;;;;;;;;;6.40;99.90;;;;;;9030749;26;19952;-74
2024/04/17 23:42:43;;;;;;;;;;;6.30;99.90;;;;;;9042617;26;19952;-74
2024/04/17 23:46:45;;;;;;;;;;;6.20;99.90;;;;;;9041372;26;19925;-75
2024/04/17 23:50:47;;;;;;;;;;;6.10;99.90;;;;;;9060699;26;19923;-74
2024/04/17 23:54:49;;;;;;;;;;;6.00;99.90;;;;;;9043378;26;19924;-74
2024/04/17 23:58:50;;;;;;;;;;;5.90;99.90;;;;;;9030634;26;19924;-74
